sensor_id;sensor_type;location;lat;lon;timestamp;P1;durP1;ratioP1;P2;durP2;ratioP2
52586;SDS011;38480;52.724;6.436;2022-11-20T00:02:20;27.00;;;12.60;;
52586;SDS011;38480;52.724;6.436;2022-11-20T00:04:46;21.13;;;11.47;;
52586;SDS011;38480;52.724;6.436;2022-11-20T00:07:12;27.03;;;12.90;;
52586;SDS011;38480;52.724;6.436;2022-11-20T00:09:38;27.97;;;11.00;;
52586;SDS011;38480;52.724;6.436;2022-11-20T00:12:04;26.87;;;12.43;;
52586;SDS011;38480;52.724;6.436;2022-11-20T00:14:31;27.83;;;12.70;;
52586;SDS011;38480;52.724;6.436;2022-11-20T00:16:57;28.67;;;14.17;;
52586;SDS011;38480;52.724;6.436;2022-11-20T00:19:23;33.50;;;15.07;;
52586;SDS011;38480;52.724;6.436;2022-11-20T00:21:49;27.83;;;14.73;;
52586;SDS011;38480;52.724;6.436;2022-11-20T00:24:20;32.00;;;14.27;;
52586;SDS011;38480;52.724;6.436;2022-11-20T00:26:46;30.07;;;14.00;;
52586;SDS011;38480;52.724;6.436;2022-11-20T00:29:12;25.20;;;11.87;;
52586;SDS011;38480;52.724;6.436;2022-11-20T00:31:38;20.50;;;10.03;;
52586;SDS011;38480;52.724;6.436;2022-11-20T00:34:04;23.77;;;11.40;;
52586;SDS011;38480;52.724;6.436;2022-11-20T00:36:32;21.60;;;11.63;;
52586;SDS011;38480;52.724;6.436;2022-11-20T00:38:59;20.70;;;10.90;;
52586;SDS011;38480;52.724;6.436;2022-11-20T00:41:26;18.43;;;10.63;;
52586;SDS011;38480;52.724;6.436;2022-11-20T00:43:53;22.93;;;9.87;;
52586;SDS011;38480;52.724;6.436;2022-11-20T00:46:20;23.20;;;9.93;;
52586;SDS011;38480;52.724;6.436;2022-11-20T00:48:47;19.27;;;9.80;;
52586;SDS011;38480;52.724;6.436;2022-11-20T00:51:16;19.67;;;10.00;;
52586;SDS011;38480;52.724;6.436;2022-11-20T00:53:42;18.57;;;9.50;;
52586;SDS011;38480;52.724;6.436;2022-11-20T00:56:12;18.87;;;10.60;;
52586;SDS011;38480;52.724;6.436;2022-11-20T00:58:39;19.53;;;9.83;;
52586;SDS011;38480;52.724;6.436;2022-11-20T01:01:09;20.80;;;10.80;;
52586;SDS011;38480;52.724;6.436;2022-11-20T01:03:40;25.80;;;11.30;;
52586;SDS011;38480;52.724;6.436;2022-11-20T01:06:07;21.93;;;10.23;;
52586;SDS011;38480;52.724;6.436;2022-11-20T01:08:35;20.97;;;11.27;;
52586;SDS011;38480;52.724;6.436;2022-11-20T01:11:02;20.93;;;10.40;;
52586;SDS011;38480;52.724;6.436;2022-11-20T01:13:29;20.03;;;10.53;;
52586;SDS011;38480;52.724;6.436;2022-11-20T01:16:03;20.98;;;9.85;;
52586;SDS011;38480;52.724;6.436;2022-11-20T01:18:29;20.53;;;10.17;;
52586;SDS011;38480;52.724;6.436;2022-11-20T01:20:55;18.87;;;9.30;;
52586;SDS011;38480;52.724;6.436;2022-11-20T01:23:21;26.03;;;11.50;;
52586;SDS011;38480;52.724;6.436;2022-11-20T01:25:47;20.70;;;10.80;;
52586;SDS011;38480;52.724;6.436;2022-11-20T01:28:13;22.77;;;11.00;;
52586;SDS011;38480;52.724;6.436;2022-11-20T01:30:39;19.47;;;10.33;;
52586;SDS011;38480;52.724;6.436;2022-11-20T01:33:05;20.67;;;10.03;;
52586;SDS011;38480;52.724;6.436;2022-11-20T01:35:31;21.87;;;10.93;;
52586;SDS011;38480;52.724;6.436;2022-11-20T01:37:57;23.17;;;11.50;;
52586;SDS011;38480;52.724;6.436;2022-11-20T01:40:23;24.70;;;11.17;;
52586;SDS011;38480;52.724;6.436;2022-11-20T01:42:52;29.20;;;11.93;;
52586;SDS011;38480;52.724;6.436;2022-11-20T01:48:12;24.83;;;11.60;;
52586;SDS011;38480;52.724;6.436;2022-11-20T01:50:38;22.87;;;11.40;;
52586;SDS011;38480;52.724;6.436;2022-11-20T01:53:06;21.93;;;11.13;;
52586;SDS011;38480;52.724;6.436;2022-11-20T01:55:34;21.73;;;11.10;;
52586;SDS011;38480;52.724;6.436;2022-11-20T01:58:01;19.23;;;10.27;;
52586;SDS011;38480;52.724;6.436;2022-11-20T02:00:28;23.67;;;10.63;;
52586;SDS011;38480;52.724;6.436;2022-11-20T02:02:56;20.40;;;10.67;;
52586;SDS011;38480;52.724;6.436;2022-11-20T02:07:51;19.83;;;10.23;;
52586;SDS011;38480;52.724;6.436;2022-11-20T02:10:18;23.80;;;11.23;;
52586;SDS011;38480;52.724;6.436;2022-11-20T02:12:44;21.37;;;11.33;;
52586;SDS011;38480;52.724;6.436;2022-11-20T02:15:29;25.07;;;12.17;;
52586;SDS011;38480;52.724;6.436;2022-11-20T02:17:55;24.03;;;11.27;;
52586;SDS011;38480;52.724;6.436;2022-11-20T02:20:21;30.63;;;11.50;;
52586;SDS011;38480;52.724;6.436;2022-11-20T02:22:52;19.27;;;10.20;;
52586;SDS011;38480;52.724;6.436;2022-11-20T02:25:20;19.70;;;9.75;;
52586;SDS011;38480;52.724;6.436;2022-11-20T02:27:46;31.87;;;15.17;;
52586;SDS011;38480;52.724;6.436;2022-11-20T02:30:13;30.47;;;13.50;;
52586;SDS011;38480;52.724;6.436;2022-11-20T02:32:39;20.93;;;11.30;;
52586;SDS011;38480;52.724;6.436;2022-11-20T02:35:47;22.70;;;10.03;;
52586;SDS011;38480;52.724;6.436;2022-11-20T02:37:54;19.93;;;10.40;;
52586;SDS011;38480;52.724;6.436;2022-11-20T02:40:21;21.87;;;10.87;;
52586;SDS011;38480;52.724;6.436;2022-11-20T02:42:51;23.83;;;11.37;;
52586;SDS011;38480;52.724;6.436;2022-11-20T02:45:17;24.07;;;11.30;;
52586;SDS011;38480;52.724;6.436;2022-11-20T02:47:43;27.07;;;12.03;;
52586;SDS011;38480;52.724;6.436;2022-11-20T02:50:09;25.37;;;11.87;;
52586;SDS011;38480;52.724;6.436;2022-11-20T02:52:36;27.63;;;12.03;;
52586;SDS011;38480;52.724;6.436;2022-11-20T02:55:02;22.10;;;12.27;;
52586;SDS011;38480;52.724;6.436;2022-11-20T02:57:28;20.33;;;10.80;;
52586;SDS011;38480;52.724;6.436;2022-11-20T02:59:54;21.77;;;10.73;;
52586;SDS011;38480;52.724;6.436;2022-11-20T03:02:20;21.23;;;10.70;;
52586;SDS011;38480;52.724;6.436;2022-11-20T03:04:46;22.53;;;10.57;;
52586;SDS011;38480;52.724;6.436;2022-11-20T03:07:13;23.50;;;11.00;;
52586;SDS011;38480;52.724;6.436;2022-11-20T03:09:39;21.17;;;11.20;;
52586;SDS011;38480;52.724;6.436;2022-11-20T03:12:05;27.33;;;12.57;;
52586;SDS011;38480;52.724;6.436;2022-11-20T03:14:31;20.93;;;12.10;;
52586;SDS011;38480;52.724;6.436;2022-11-20T03:16:57;27.43;;;12.20;;
52586;SDS011;38480;52.724;6.436;2022-11-20T03:19:23;20.33;;;10.93;;
52586;SDS011;38480;52.724;6.436;2022-11-20T03:21:50;27.43;;;12.40;;
52586;SDS011;38480;52.724;6.436;2022-11-20T03:24:16;21.77;;;12.13;;
52586;SDS011;38480;52.724;6.436;2022-11-20T03:26:42;21.93;;;11.27;;
52586;SDS011;38480;52.724;6.436;2022-11-20T03:29:08;25.60;;;12.80;;
52586;SDS011;38480;52.724;6.436;2022-11-20T03:31:35;25.63;;;13.27;;
52586;SDS011;38480;52.724;6.436;2022-11-20T03:34:02;20.97;;;11.20;;
52586;SDS011;38480;52.724;6.436;2022-11-20T03:36:28;25.27;;;12.17;;
52586;SDS011;38480;52.724;6.436;2022-11-20T03:38:55;23.77;;;12.13;;
52586;SDS011;38480;52.724;6.436;2022-11-20T03:41:22;26.53;;;14.03;;
52586;SDS011;38480;52.724;6.436;2022-11-20T03:43:49;26.80;;;13.20;;
52586;SDS011;38480;52.724;6.436;2022-11-20T03:46:16;24.00;;;12.40;;
52586;SDS011;38480;52.724;6.436;2022-11-20T03:48:42;24.97;;;11.97;;
52586;SDS011;38480;52.724;6.436;2022-11-20T03:53:37;22.57;;;11.27;;
52586;SDS011;38480;52.724;6.436;2022-11-20T03:56:04;24.37;;;11.73;;
52586;SDS011;38480;52.724;6.436;2022-11-20T03:58:30;24.97;;;12.40;;
52586;SDS011;38480;52.724;6.436;2022-11-20T04:00:56;22.97;;;11.97;;
52586;SDS011;38480;52.724;6.436;2022-11-20T04:03:22;24.93;;;13.07;;
52586;SDS011;38480;52.724;6.436;2022-11-20T04:05:48;24.97;;;11.70;;
52586;SDS011;38480;52.724;6.436;2022-11-20T04:08:14;30.03;;;13.87;;
52586;SDS011;38480;52.724;6.436;2022-11-20T04:10:40;21.87;;;12.53;;
52586;SDS011;38480;52.724;6.436;2022-11-20T04:13:06;23.53;;;12.87;;
52586;SDS011;38480;52.724;6.436;2022-11-20T04:15:32;28.90;;;12.77;;
52586;SDS011;38480;52.724;6.436;2022-11-20T04:17:58;24.10;;;11.57;;
52586;SDS011;38480;52.724;6.436;2022-11-20T04:20:24;26.63;;;13.10;;
52586;SDS011;38480;52.724;6.436;2022-11-20T04:22:52;25.00;;;12.50;;
52586;SDS011;38480;52.724;6.436;2022-11-20T04:25:19;25.73;;;11.90;;
52586;SDS011;38480;52.724;6.436;2022-11-20T04:27:45;26.17;;;12.83;;
52586;SDS011;38480;52.724;6.436;2022-11-20T04:30:11;24.57;;;12.30;;
52586;SDS011;38480;52.724;6.436;2022-11-20T04:32:38;28.03;;;12.50;;
52586;SDS011;38480;52.724;6.436;2022-11-20T04:35:04;28.27;;;13.53;;
52586;SDS011;38480;52.724;6.436;2022-11-20T04:37:30;22.80;;;12.17;;
52586;SDS011;38480;52.724;6.436;2022-11-20T04:39:56;26.80;;;12.83;;
52586;SDS011;38480;52.724;6.436;2022-11-20T04:42:22;23.63;;;12.10;;
52586;SDS011;38480;52.724;6.436;2022-11-20T04:44:54;24.30;;;12.93;;
52586;SDS011;38480;52.724;6.436;2022-11-20T04:47:21;31.93;;;13.63;;
52586;SDS011;38480;52.724;6.436;2022-11-20T04:49:47;26.00;;;13.83;;
52586;SDS011;38480;52.724;6.436;2022-11-20T04:52:13;30.67;;;15.47;;
52586;SDS011;38480;52.724;6.436;2022-11-20T04:54:39;27.60;;;12.90;;
52586;SDS011;38480;52.724;6.436;2022-11-20T04:57:05;25.17;;;12.97;;
52586;SDS011;38480;52.724;6.436;2022-11-20T04:59:31;25.73;;;12.43;;
52586;SDS011;38480;52.724;6.436;2022-11-20T05:01:57;22.80;;;11.77;;
52586;SDS011;38480;52.724;6.436;2022-11-20T05:04:23;24.70;;;12.83;;
52586;SDS011;38480;52.724;6.436;2022-11-20T05:06:49;25.50;;;13.03;;
52586;SDS011;38480;52.724;6.436;2022-11-20T05:09:16;22.50;;;12.23;;
52586;SDS011;38480;52.724;6.436;2022-11-20T05:11:42;27.07;;;13.83;;
52586;SDS011;38480;52.724;6.436;2022-11-20T05:14:08;27.47;;;12.90;;
52586;SDS011;38480;52.724;6.436;2022-11-20T05:16:34;23.47;;;12.23;;
52586;SDS011;38480;52.724;6.436;2022-11-20T05:19:03;23.23;;;13.37;;
52586;SDS011;38480;52.724;6.436;2022-11-20T05:21:30;22.73;;;12.23;;
52586;SDS011;38480;52.724;6.436;2022-11-20T05:23:57;26.77;;;14.33;;
52586;SDS011;38480;52.724;6.436;2022-11-20T05:26:23;25.90;;;13.00;;
52586;SDS011;38480;52.724;6.436;2022-11-20T05:28:49;23.73;;;12.27;;
52586;SDS011;38480;52.724;6.436;2022-11-20T05:31:22;28.37;;;14.13;;
52586;SDS011;38480;52.724;6.436;2022-11-20T05:33:49;24.58;;;13.02;;
52586;SDS011;38480;52.724;6.436;2022-11-20T05:36:15;25.43;;;13.03;;
52586;SDS011;38480;52.724;6.436;2022-11-20T05:38:42;24.77;;;14.40;;
52586;SDS011;38480;52.724;6.436;2022-11-20T05:41:15;26.67;;;13.53;;
52586;SDS011;38480;52.724;6.436;2022-11-20T05:43:42;25.30;;;11.85;;
52586;SDS011;38480;52.724;6.436;2022-11-20T05:46:10;27.00;;;13.07;;
52586;SDS011;38480;52.724;6.436;2022-11-20T05:48:36;30.00;;;14.03;;
52586;SDS011;38480;52.724;6.436;2022-11-20T05:51:04;26.53;;;14.10;;
52586;SDS011;38480;52.724;6.436;2022-11-20T05:53:31;33.43;;;15.83;;
52586;SDS011;38480;52.724;6.436;2022-11-20T05:56:01;27.37;;;14.63;;
52586;SDS011;38480;52.724;6.436;2022-11-20T05:58:27;27.43;;;13.93;;
52586;SDS011;38480;52.724;6.436;2022-11-20T06:00:54;29.07;;;14.77;;
52586;SDS011;38480;52.724;6.436;2022-11-20T06:03:20;26.47;;;13.73;;
52586;SDS011;38480;52.724;6.436;2022-11-20T06:05:46;32.80;;;15.13;;
52586;SDS011;38480;52.724;6.436;2022-11-20T06:08:12;35.60;;;16.33;;
52586;SDS011;38480;52.724;6.436;2022-11-20T06:10:38;32.57;;;15.77;;
52586;SDS011;38480;52.724;6.436;2022-11-20T06:13:04;29.90;;;15.97;;
52586;SDS011;38480;52.724;6.436;2022-11-20T06:15:30;29.07;;;14.53;;
52586;SDS011;38480;52.724;6.436;2022-11-20T06:17:56;29.90;;;16.00;;
52586;SDS011;38480;52.724;6.436;2022-11-20T06:20:23;31.77;;;16.33;;
52586;SDS011;38480;52.724;6.436;2022-11-20T06:22:49;29.80;;;15.37;;
52586;SDS011;38480;52.724;6.436;2022-11-20T06:25:16;29.50;;;15.90;;
52586;SDS011;38480;52.724;6.436;2022-11-20T06:27:42;29.87;;;15.40;;
52586;SDS011;38480;52.724;6.436;2022-11-20T06:30:08;26.67;;;14.67;;
52586;SDS011;38480;52.724;6.436;2022-11-20T06:32:34;27.77;;;15.13;;
52586;SDS011;38480;52.724;6.436;2022-11-20T06:35:00;29.93;;;15.37;;
52586;SDS011;38480;52.724;6.436;2022-11-20T06:37:26;30.00;;;16.90;;
52586;SDS011;38480;52.724;6.436;2022-11-20T06:39:52;30.60;;;17.23;;
52586;SDS011;38480;52.724;6.436;2022-11-20T06:42:18;27.77;;;15.57;;
52586;SDS011;38480;52.724;6.436;2022-11-20T06:44:44;24.83;;;14.60;;
52586;SDS011;38480;52.724;6.436;2022-11-20T06:47:10;27.83;;;15.30;;
52586;SDS011;38480;52.724;6.436;2022-11-20T06:49:36;30.20;;;16.30;;
52586;SDS011;38480;52.724;6.436;2022-11-20T06:52:03;32.10;;;15.33;;
52586;SDS011;38480;52.724;6.436;2022-11-20T06:54:29;28.77;;;14.93;;
52586;SDS011;38480;52.724;6.436;2022-11-20T06:56:55;28.93;;;16.00;;
52586;SDS011;38480;52.724;6.436;2022-11-20T06:59:21;29.40;;;15.70;;
52586;SDS011;38480;52.724;6.436;2022-11-20T07:01:47;27.73;;;15.40;;
52586;SDS011;38480;52.724;6.436;2022-11-20T07:04:13;27.47;;;14.03;;
52586;SDS011;38480;52.724;6.436;2022-11-20T07:06:40;23.93;;;13.10;;
52586;SDS011;38480;52.724;6.436;2022-11-20T07:09:06;27.43;;;14.20;;
52586;SDS011;38480;52.724;6.436;2022-11-20T07:11:32;27.77;;;15.73;;
52586;SDS011;38480;52.724;6.436;2022-11-20T07:13:58;29.43;;;15.70;;
52586;SDS011;38480;52.724;6.436;2022-11-20T07:16:24;28.70;;;14.73;;
52586;SDS011;38480;52.724;6.436;2022-11-20T07:18:50;29.20;;;15.27;;
52586;SDS011;38480;52.724;6.436;2022-11-20T07:21:16;32.30;;;16.27;;
52586;SDS011;38480;52.724;6.436;2022-11-20T07:23:42;28.03;;;14.47;;
52586;SDS011;38480;52.724;6.436;2022-11-20T07:26:10;27.23;;;15.20;;
52586;SDS011;38480;52.724;6.436;2022-11-20T07:28:36;25.17;;;14.10;;
52586;SDS011;38480;52.724;6.436;2022-11-20T07:31:03;32.10;;;16.77;;
52586;SDS011;38480;52.724;6.436;2022-11-20T07:33:30;28.77;;;14.30;;
52586;SDS011;38480;52.724;6.436;2022-11-20T07:35:58;29.77;;;15.80;;
52586;SDS011;38480;52.724;6.436;2022-11-20T07:38:24;29.57;;;15.70;;
52586;SDS011;38480;52.724;6.436;2022-11-20T07:40:54;27.23;;;14.37;;
52586;SDS011;38480;52.724;6.436;2022-11-20T07:43:21;27.23;;;15.13;;
52586;SDS011;38480;52.724;6.436;2022-11-20T07:45:47;32.20;;;16.87;;
52586;SDS011;38480;52.724;6.436;2022-11-20T07:48:13;28.37;;;14.53;;
52586;SDS011;38480;52.724;6.436;2022-11-20T07:50:39;30.83;;;16.50;;
52586;SDS011;38480;52.724;6.436;2022-11-20T07:53:05;29.07;;;16.60;;
52586;SDS011;38480;52.724;6.436;2022-11-20T07:55:31;26.83;;;15.53;;
52586;SDS011;38480;52.724;6.436;2022-11-20T07:57:58;32.70;;;17.53;;
52586;SDS011;38480;52.724;6.436;2022-11-20T08:00:24;34.40;;;17.13;;
52586;SDS011;38480;52.724;6.436;2022-11-20T08:02:51;31.73;;;17.30;;
52586;SDS011;38480;52.724;6.436;2022-11-20T08:05:17;32.37;;;16.63;;
52586;SDS011;38480;52.724;6.436;2022-11-20T08:07:43;29.60;;;16.90;;
52586;SDS011;38480;52.724;6.436;2022-11-20T08:10:10;28.83;;;16.37;;
52586;SDS011;38480;52.724;6.436;2022-11-20T08:12:42;28.67;;;16.63;;
52586;SDS011;38480;52.724;6.436;2022-11-20T08:15:27;27.57;;;16.80;;
52586;SDS011;38480;52.724;6.436;2022-11-20T08:17:59;29.00;;;17.07;;
52586;SDS011;38480;52.724;6.436;2022-11-20T08:20:25;29.83;;;17.37;;
52586;SDS011;38480;52.724;6.436;2022-11-20T08:22:51;30.80;;;17.77;;
52586;SDS011;38480;52.724;6.436;2022-11-20T08:25:17;32.17;;;18.13;;
52586;SDS011;38480;52.724;6.436;2022-11-20T08:27:43;28.67;;;16.77;;
52586;SDS011;38480;52.724;6.436;2022-11-20T08:30:09;32.27;;;18.90;;
52586;SDS011;38480;52.724;6.436;2022-11-20T08:32:35;26.53;;;15.47;;
52586;SDS011;38480;52.724;6.436;2022-11-20T08:35:02;27.47;;;16.13;;
52586;SDS011;38480;52.724;6.436;2022-11-20T08:37:28;24.27;;;13.80;;
52586;SDS011;38480;52.724;6.436;2022-11-20T08:39:54;27.37;;;14.57;;
52586;SDS011;38480;52.724;6.436;2022-11-20T08:42:22;25.70;;;14.93;;
52586;SDS011;38480;52.724;6.436;2022-11-20T08:44:48;23.90;;;14.63;;
52586;SDS011;38480;52.724;6.436;2022-11-20T08:47:14;26.67;;;15.67;;
52586;SDS011;38480;52.724;6.436;2022-11-20T08:49:40;24.20;;;14.33;;
52586;SDS011;38480;52.724;6.436;2022-11-20T08:52:06;27.87;;;14.93;;
52586;SDS011;38480;52.724;6.436;2022-11-20T08:54:32;25.10;;;15.83;;
52586;SDS011;38480;52.724;6.436;2022-11-20T08:56:58;26.40;;;14.43;;
52586;SDS011;38480;52.724;6.436;2022-11-20T08:59:24;27.63;;;15.40;;
52586;SDS011;38480;52.724;6.436;2022-11-20T09:01:50;25.57;;;14.40;;
52586;SDS011;38480;52.724;6.436;2022-11-20T09:04:16;27.77;;;16.97;;
52586;SDS011;38480;52.724;6.436;2022-11-20T09:06:42;30.83;;;15.60;;
52586;SDS011;38480;52.724;6.436;2022-11-20T09:09:08;26.63;;;15.50;;
52586;SDS011;38480;52.724;6.436;2022-11-20T09:11:34;28.07;;;15.17;;
52586;SDS011;38480;52.724;6.436;2022-11-20T09:14:01;28.13;;;16.13;;
52586;SDS011;38480;52.724;6.436;2022-11-20T09:16:27;24.90;;;15.43;;
52586;SDS011;38480;52.724;6.436;2022-11-20T09:18:53;28.67;;;15.83;;
52586;SDS011;38480;52.724;6.436;2022-11-20T09:21:19;27.63;;;16.37;;
52586;SDS011;38480;52.724;6.436;2022-11-20T09:23:47;25.67;;;15.57;;
52586;SDS011;38480;52.724;6.436;2022-11-20T09:26:13;29.63;;;16.27;;
52586;SDS011;38480;52.724;6.436;2022-11-20T09:28:40;30.63;;;16.53;;
52586;SDS011;38480;52.724;6.436;2022-11-20T09:31:11;28.20;;;17.13;;
52586;SDS011;38480;52.724;6.436;2022-11-20T09:33:39;40.67;;;20.70;;
52586;SDS011;38480;52.724;6.436;2022-11-20T09:36:06;32.80;;;18.53;;
52586;SDS011;38480;52.724;6.436;2022-11-20T09:38:32;31.87;;;20.57;;
52586;SDS011;38480;52.724;6.436;2022-11-20T09:41:02;28.20;;;16.83;;
52586;SDS011;38480;52.724;6.436;2022-11-20T09:48:39;25.17;;;15.90;;
52586;SDS011;38480;52.724;6.436;2022-11-20T09:53:45;24.43;;;15.33;;
52586;SDS011;38480;52.724;6.436;2022-11-20T09:56:12;18.97;;;13.23;;
52586;SDS011;38480;52.724;6.436;2022-11-20T10:06:08;14.93;;;10.97;;
52586;SDS011;38480;52.724;6.436;2022-11-20T10:08:39;14.37;;;9.90;;
52586;SDS011;38480;52.724;6.436;2022-11-20T10:16:24;17.50;;;10.87;;
52586;SDS011;38480;52.724;6.436;2022-11-20T10:26:54;16.03;;;9.57;;
52586;SDS011;38480;52.724;6.436;2022-11-20T10:29:43;15.40;;;9.43;;
52586;SDS011;38480;52.724;6.436;2022-11-20T10:32:16;12.23;;;8.33;;
52586;SDS011;38480;52.724;6.436;2022-11-20T10:34:46;13.50;;;9.10;;
52586;SDS011;38480;52.724;6.436;2022-11-20T10:37:16;16.30;;;11.73;;
52586;SDS011;38480;52.724;6.436;2022-11-20T10:42:18;15.43;;;9.83;;
52586;SDS011;38480;52.724;6.436;2022-11-20T10:44:48;11.27;;;8.30;;
52586;SDS011;38480;52.724;6.436;2022-11-20T10:47:26;12.03;;;8.87;;
52586;SDS011;38480;52.724;6.436;2022-11-20T10:49:54;12.93;;;9.07;;
52586;SDS011;38480;52.724;6.436;2022-11-20T10:52:32;14.07;;;8.80;;
52586;SDS011;38480;52.724;6.436;2022-11-20T10:55:18;13.37;;;8.93;;
52586;SDS011;38480;52.724;6.436;2022-11-20T11:00:16;9.33;;;6.90;;
52586;SDS011;38480;52.724;6.436;2022-11-20T11:07:40;12.27;;;7.73;;
52586;SDS011;38480;52.724;6.436;2022-11-20T11:10:27;9.73;;;6.93;;
52586;SDS011;38480;52.724;6.436;2022-11-20T11:12:56;10.77;;;7.47;;
52586;SDS011;38480;52.724;6.436;2022-11-20T11:17:51;11.80;;;7.43;;
52586;SDS011;38480;52.724;6.436;2022-11-20T11:20:18;10.33;;;7.27;;
52586;SDS011;38480;52.724;6.436;2022-11-20T11:22:49;10.37;;;7.40;;
52586;SDS011;38480;52.724;6.436;2022-11-20T11:25:19;13.17;;;7.87;;
52586;SDS011;38480;52.724;6.436;2022-11-20T11:27:46;11.87;;;8.90;;
52586;SDS011;38480;52.724;6.436;2022-11-20T11:30:14;11.83;;;8.10;;
52586;SDS011;38480;52.724;6.436;2022-11-20T11:32:40;12.07;;;8.23;;
52586;SDS011;38480;52.724;6.436;2022-11-20T11:35:18;12.30;;;8.87;;
52586;SDS011;38480;52.724;6.436;2022-11-20T11:37:45;10.53;;;7.37;;
52586;SDS011;38480;52.724;6.436;2022-11-20T11:40:12;15.27;;;8.87;;
52586;SDS011;38480;52.724;6.436;2022-11-20T11:42:42;12.67;;;8.53;;
52586;SDS011;38480;52.724;6.436;2022-11-20T11:45:13;13.10;;;9.17;;
52586;SDS011;38480;52.724;6.436;2022-11-20T11:55:09;14.37;;;8.70;;
52586;SDS011;38480;52.724;6.436;2022-11-20T12:00:13;13.07;;;9.17;;
52586;SDS011;38480;52.724;6.436;2022-11-20T12:05:28;11.87;;;8.47;;
52586;SDS011;38480;52.724;6.436;2022-11-20T12:15:56;15.37;;;8.73;;
52586;SDS011;38480;52.724;6.436;2022-11-20T12:18:22;11.43;;;8.00;;
52586;SDS011;38480;52.724;6.436;2022-11-20T12:21:01;12.53;;;8.83;;
52586;SDS011;38480;52.724;6.436;2022-11-20T12:25:56;15.33;;;10.27;;
52586;SDS011;38480;52.724;6.436;2022-11-20T12:28:34;12.97;;;8.47;;
52586;SDS011;38480;52.724;6.436;2022-11-20T12:31:11;15.00;;;9.50;;
52586;SDS011;38480;52.724;6.436;2022-11-20T12:33:44;15.27;;;10.20;;
52586;SDS011;38480;52.724;6.436;2022-11-20T12:36:19;14.93;;;9.07;;
52586;SDS011;38480;52.724;6.436;2022-11-20T12:45:28;13.00;;;9.00;;
52586;SDS011;38480;52.724;6.436;2022-11-20T12:50:31;17.67;;;11.23;;
52586;SDS011;38480;52.724;6.436;2022-11-20T12:55:33;14.80;;;10.07;;
52586;SDS011;38480;52.724;6.436;2022-11-20T12:58:10;15.70;;;9.63;;
52586;SDS011;38480;52.724;6.436;2022-11-20T13:00:38;15.03;;;10.70;;
52586;SDS011;38480;52.724;6.436;2022-11-20T13:08:18;16.90;;;9.93;;
52586;SDS011;38480;52.724;6.436;2022-11-20T13:15:57;15.43;;;10.33;;
52586;SDS011;38480;52.724;6.436;2022-11-20T13:18:24;14.73;;;9.90;;
52586;SDS011;38480;52.724;6.436;2022-11-20T13:20:50;15.10;;;9.73;;
52586;SDS011;38480;52.724;6.436;2022-11-20T13:23:26;15.23;;;10.00;;
52586;SDS011;38480;52.724;6.436;2022-11-20T13:26:06;15.20;;;11.20;;
52586;SDS011;38480;52.724;6.436;2022-11-20T13:28:39;15.37;;;10.63;;
52586;SDS011;38480;52.724;6.436;2022-11-20T13:31:09;16.57;;;11.20;;
52586;SDS011;38480;52.724;6.436;2022-11-20T13:36:25;15.27;;;10.00;;
52586;SDS011;38480;52.724;6.436;2022-11-20T13:38:53;15.90;;;10.03;;
52586;SDS011;38480;52.724;6.436;2022-11-20T13:41:37;16.00;;;10.20;;
52586;SDS011;38480;52.724;6.436;2022-11-20T13:44:09;17.53;;;10.50;;
52586;SDS011;38480;52.724;6.436;2022-11-20T13:46:37;17.37;;;11.03;;
52586;SDS011;38480;52.724;6.436;2022-11-20T13:49:07;16.23;;;10.03;;
52586;SDS011;38480;52.724;6.436;2022-11-20T13:51:44;16.63;;;10.87;;
52586;SDS011;38480;52.724;6.436;2022-11-20T13:54:17;14.43;;;10.20;;
52586;SDS011;38480;52.724;6.436;2022-11-20T14:01:58;18.60;;;11.27;;
52586;SDS011;38480;52.724;6.436;2022-11-20T14:04:26;14.73;;;9.37;;
52586;SDS011;38480;52.724;6.436;2022-11-20T14:06:53;13.97;;;9.90;;
52586;SDS011;38480;52.724;6.436;2022-11-20T14:09:27;16.03;;;10.40;;
52586;SDS011;38480;52.724;6.436;2022-11-20T14:11:53;15.53;;;10.57;;
52586;SDS011;38480;52.724;6.436;2022-11-20T14:14:20;15.90;;;10.53;;
52586;SDS011;38480;52.724;6.436;2022-11-20T14:16:47;23.20;;;11.33;;
52586;SDS011;38480;52.724;6.436;2022-11-20T14:21:44;30.20;;;13.13;;
52586;SDS011;38480;52.724;6.436;2022-11-20T14:24:10;15.47;;;10.63;;
52586;SDS011;38480;52.724;6.436;2022-11-20T14:26:44;15.63;;;10.57;;
52586;SDS011;38480;52.724;6.436;2022-11-20T14:29:17;17.88;;;12.35;;
52586;SDS011;38480;52.724;6.436;2022-11-20T14:31:44;16.73;;;11.17;;
52586;SDS011;38480;52.724;6.436;2022-11-20T14:34:27;18.93;;;10.90;;
52586;SDS011;38480;52.724;6.436;2022-11-20T14:36:58;18.02;;;11.07;;
52586;SDS011;38480;52.724;6.436;2022-11-20T14:39:35;14.80;;;9.73;;
52586;SDS011;38480;52.724;6.436;2022-11-20T14:42:01;16.47;;;10.30;;
52586;SDS011;38480;52.724;6.436;2022-11-20T14:44:34;17.77;;;11.23;;
52586;SDS011;38480;52.724;6.436;2022-11-20T14:47:02;18.87;;;10.73;;
52586;SDS011;38480;52.724;6.436;2022-11-20T14:49:29;16.00;;;10.23;;
52586;SDS011;38480;52.724;6.436;2022-11-20T14:52:00;18.67;;;12.30;;
52586;SDS011;38480;52.724;6.436;2022-11-20T14:54:26;17.23;;;11.60;;
52586;SDS011;38480;52.724;6.436;2022-11-20T14:56:58;14.90;;;10.43;;
52586;SDS011;38480;52.724;6.436;2022-11-20T14:59:25;18.87;;;10.33;;
52586;SDS011;38480;52.724;6.436;2022-11-20T15:01:57;17.97;;;11.93;;
52586;SDS011;38480;52.724;6.436;2022-11-20T15:04:23;17.50;;;10.83;;
52586;SDS011;38480;52.724;6.436;2022-11-20T15:06:50;19.33;;;11.87;;
52586;SDS011;38480;52.724;6.436;2022-11-20T15:09:17;17.77;;;11.77;;
52586;SDS011;38480;52.724;6.436;2022-11-20T15:11:52;18.53;;;11.20;;
52586;SDS011;38480;52.724;6.436;2022-11-20T15:14:18;17.77;;;12.27;;
52586;SDS011;38480;52.724;6.436;2022-11-20T15:16:44;19.50;;;11.20;;
52586;SDS011;38480;52.724;6.436;2022-11-20T15:19:16;14.80;;;11.30;;
52586;SDS011;38480;52.724;6.436;2022-11-20T15:21:43;16.30;;;10.87;;
52586;SDS011;38480;52.724;6.436;2022-11-20T15:24:09;18.03;;;11.07;;
52586;SDS011;38480;52.724;6.436;2022-11-20T15:26:35;15.97;;;11.13;;
52586;SDS011;38480;52.724;6.436;2022-11-20T15:29:05;16.17;;;10.80;;
52586;SDS011;38480;52.724;6.436;2022-11-20T15:31:33;20.07;;;12.43;;
52586;SDS011;38480;52.724;6.436;2022-11-20T15:33:59;20.17;;;12.73;;
52586;SDS011;38480;52.724;6.436;2022-11-20T15:36:25;21.57;;;12.53;;
52586;SDS011;38480;52.724;6.436;2022-11-20T15:38:51;19.07;;;12.00;;
52586;SDS011;38480;52.724;6.436;2022-11-20T15:41:18;19.43;;;13.50;;
52586;SDS011;38480;52.724;6.436;2022-11-20T15:43:44;21.60;;;13.17;;
52586;SDS011;38480;52.724;6.436;2022-11-20T15:46:11;20.67;;;11.63;;
52586;SDS011;38480;52.724;6.436;2022-11-20T15:48:42;15.80;;;11.00;;
52586;SDS011;38480;52.724;6.436;2022-11-20T15:53:35;17.40;;;11.53;;
52586;SDS011;38480;52.724;6.436;2022-11-20T15:56:02;17.13;;;11.47;;
52586;SDS011;38480;52.724;6.436;2022-11-20T15:58:28;20.07;;;12.10;;
52586;SDS011;38480;52.724;6.436;2022-11-20T16:00:54;16.07;;;11.67;;
52586;SDS011;38480;52.724;6.436;2022-11-20T16:03:20;17.13;;;11.60;;
52586;SDS011;38480;52.724;6.436;2022-11-20T16:05:47;17.70;;;11.70;;
52586;SDS011;38480;52.724;6.436;2022-11-20T16:08:13;17.70;;;11.43;;
52586;SDS011;38480;52.724;6.436;2022-11-20T16:10:39;20.53;;;11.93;;
52586;SDS011;38480;52.724;6.436;2022-11-20T16:13:16;21.03;;;13.77;;
52586;SDS011;38480;52.724;6.436;2022-11-20T16:16:03;19.67;;;12.93;;